sensor_id;sensor_type;location;lat;lon;timestamp;pressure;altitude;pressure_sealevel;temperature;humidity
42519;BME280;28147;47.520;18.920;2023-02-12T00:04:53;99640.31;;;5.21;71.69
42519;BME280;28147;47.520;18.920;2023-02-12T00:07:18;99654.00;;;5.24;71.29
42519;BME280;28147;47.520;18.920;2023-02-12T00:09:43;99677.22;;;5.45;70.86
42519;BME280;28147;47.520;18.920;2023-02-12T00:12:09;99664.91;;;5.21;71.37
42519;BME280;28147;47.520;18.920;2023-02-12T00:14:36;99676.94;;;5.32;71.38
42519;BME280;28147;47.520;18.920;2023-02-12T00:17:01;99668.03;;;5.17;72.14
42519;BME280;28147;47.520;18.920;2023-02-12T00:21:12;99672.13;;;5.44;71.07
42519;BME280;28147;47.520;18.920;2023-02-12T00:23:42;99663.06;;;5.30;72.18
42519;BME280;28147;47.520;18.920;2023-02-12T00:26:21;99654.66;;;5.26;71.98
42519;BME280;28147;47.520;18.920;2023-02-12T00:28:47;99660.63;;;5.12;72.97
42519;BME280;28147;47.520;18.920;2023-02-12T00:33:47;99645.94;;;5.09;73.71
42519;BME280;28147;47.520;18.920;2023-02-12T00:36:16;99638.84;;;5.10;73.65
42519;BME280;28147;47.520;18.920;2023-02-12T00:38:41;99644.28;;;5.25;72.98
42519;BME280;28147;47.520;18.920;2023-02-12T00:41:07;99644.63;;;5.05;74.34
42519;BME280;28147;47.520;18.920;2023-02-12T00:43:32;99639.34;;;5.13;74.24
42519;BME280;28147;47.520;18.920;2023-02-12T00:45:58;99632.09;;;5.16;73.96
42519;BME280;28147;47.520;18.920;2023-02-12T00:48:23;99641.31;;;5.20;74.06
42519;BME280;28147;47.520;18.920;2023-02-12T00:50:49;99631.59;;;5.12;73.96
42519;BME280;28147;47.520;18.920;2023-02-12T00:53:14;99635.22;;;5.11;73.97
42519;BME280;28147;47.520;18.920;2023-02-12T00:55:40;99635.34;;;5.26;73.30
42519;BME280;28147;47.520;18.920;2023-02-12T00:58:06;99645.41;;;5.39;72.59
42519;BME280;28147;47.520;18.920;2023-02-12T01:00:31;99645.41;;;5.39;72.73
42519;BME280;28147;47.520;18.920;2023-02-12T01:02:57;99642.75;;;5.39;72.37
42519;BME280;28147;47.520;18.920;2023-02-12T01:05:22;99643.94;;;5.28;72.88
42519;BME280;28147;47.520;18.920;2023-02-12T01:07:49;99637.34;;;5.07;73.78
42519;BME280;28147;47.520;18.920;2023-02-12T01:12:20;99640.00;;;5.24;73.43
42519;BME280;28147;47.520;18.920;2023-02-12T01:14:46;99627.50;;;5.01;74.32
42519;BME280;28147;47.520;18.920;2023-02-12T01:17:11;99639.03;;;5.08;74.38
42519;BME280;28147;47.520;18.920;2023-02-12T01:19:36;99627.31;;;5.03;74.60
42519;BME280;28147;47.520;18.920;2023-02-12T01:22:02;99624.78;;;5.26;73.66
42519;BME280;28147;47.520;18.920;2023-02-12T01:24:28;99618.03;;;5.15;73.91
42519;BME280;28147;47.520;18.920;2023-02-12T01:26:53;99620.22;;;5.11;74.02
42519;BME280;28147;47.520;18.920;2023-02-12T01:29:18;99608.34;;;4.99;74.47
42519;BME280;28147;47.520;18.920;2023-02-12T01:31:44;99611.47;;;5.03;74.80
42519;BME280;28147;47.520;18.920;2023-02-12T01:34:10;99615.78;;;4.96;74.93
42519;BME280;28147;47.520;18.920;2023-02-12T01:36:36;99622.50;;;5.15;74.11
42519;BME280;28147;47.520;18.920;2023-02-12T01:39:02;99640.22;;;4.90;74.95
42519;BME280;28147;47.520;18.920;2023-02-12T01:41:48;99642.63;;;5.07;74.79
42519;BME280;28147;47.520;18.920;2023-02-12T01:44:18;99641.31;;;5.28;74.94
42519;BME280;28147;47.520;18.920;2023-02-12T01:46:46;99642.78;;;5.22;74.43
42519;BME280;28147;47.520;18.920;2023-02-12T01:51:51;99645.25;;;5.32;73.83
42519;BME280;28147;47.520;18.920;2023-02-12T01:54:18;99642.13;;;5.28;73.91
42519;BME280;28147;47.520;18.920;2023-02-12T01:56:45;99644.94;;;5.10;75.27
42519;BME280;28147;47.520;18.920;2023-02-12T01:59:11;99647.19;;;5.46;73.42
42519;BME280;28147;47.520;18.920;2023-02-12T02:01:37;99640.44;;;5.44;72.90
42519;BME280;28147;47.520;18.920;2023-02-12T02:04:12;99663.53;;;5.42;73.68
42519;BME280;28147;47.520;18.920;2023-02-12T02:08:47;99646.00;;;5.49;73.50
42519;BME280;28147;47.520;18.920;2023-02-12T02:11:55;99646.56;;;5.36;74.46
42519;BME280;28147;47.520;18.920;2023-02-12T02:14:35;99638.94;;;5.49;74.10
42519;BME280;28147;47.520;18.920;2023-02-12T02:33:14;99623.47;;;5.30;75.74
42519;BME280;28147;47.520;18.920;2023-02-12T02:38:31;99631.75;;;5.27;75.33
42519;BME280;28147;47.520;18.920;2023-02-12T02:41:06;99630.78;;;5.03;76.40
42519;BME280;28147;47.520;18.920;2023-02-12T02:43:41;99626.16;;;5.13;76.41
42519;BME280;28147;47.520;18.920;2023-02-12T02:46:19;99620.72;;;5.07;76.07
42519;BME280;28147;47.520;18.920;2023-02-12T02:48:51;99607.69;;;5.05;76.00
42519;BME280;28147;47.520;18.920;2023-02-12T02:51:21;99621.72;;;5.06;76.85
42519;BME280;28147;47.520;18.920;2023-02-12T02:53:54;99632.94;;;5.08;76.33
42519;BME280;28147;47.520;18.920;2023-02-12T02:56:23;99649.56;;;5.17;76.37
42519;BME280;28147;47.520;18.920;2023-02-12T02:58:55;99662.09;;;5.23;76.19
42519;BME280;28147;47.520;18.920;2023-02-12T03:02:57;99660.09;;;5.25;75.81
42519;BME280;28147;47.520;18.920;2023-02-12T03:05:29;99658.78;;;5.29;75.56
42519;BME280;28147;47.520;18.920;2023-02-12T03:08:02;99652.50;;;5.30;75.76
42519;BME280;28147;47.520;18.920;2023-02-12T03:10:33;99661.09;;;5.24;76.19
42519;BME280;28147;47.520;18.920;2023-02-12T03:16:33;99661.63;;;5.19;76.98
42519;BME280;28147;47.520;18.920;2023-02-12T03:19:08;99662.44;;;5.03;77.23
42519;BME280;28147;47.520;18.920;2023-02-12T03:21:46;99673.34;;;5.08;77.42
42519;BME280;28147;47.520;18.920;2023-02-12T03:24:20;99665.25;;;5.10;77.11
42519;BME280;28147;47.520;18.920;2023-02-12T03:28:18;99678.44;;;5.10;77.07
42519;BME280;28147;47.520;18.920;2023-02-12T03:30:51;99687.38;;;5.01;77.68
42519;BME280;28147;47.520;18.920;2023-02-12T03:40:15;99708.78;;;5.06;77.34
42519;BME280;28147;47.520;18.920;2023-02-12T03:50:58;99694.63;;;4.82;78.69
42519;BME280;28147;47.520;18.920;2023-02-12T03:53:28;99709.78;;;5.05;77.87
42519;BME280;28147;47.520;18.920;2023-02-12T03:55:58;99706.66;;;4.93;78.05
42519;BME280;28147;47.520;18.920;2023-02-12T04:00:26;99707.31;;;5.20;77.13
42519;BME280;28147;47.520;18.920;2023-02-12T04:02:53;99714.88;;;5.15;77.51
42519;BME280;28147;47.520;18.920;2023-02-12T04:05:24;99715.53;;;4.92;78.35
42519;BME280;28147;47.520;18.920;2023-02-12T04:07:51;99719.34;;;5.06;77.72
42519;BME280;28147;47.520;18.920;2023-02-12T04:10:23;99724.13;;;5.02;77.83
42519;BME280;28147;47.520;18.920;2023-02-12T04:31:12;99754.97;;;5.26;75.96
42519;BME280;28147;47.520;18.920;2023-02-12T04:33:48;99740.63;;;5.21;76.34
42519;BME280;28147;47.520;18.920;2023-02-12T04:36:27;99738.16;;;5.27;76.31
42519;BME280;28147;47.520;18.920;2023-02-12T04:39:01;99752.69;;;5.23;76.73
42519;BME280;28147;47.520;18.920;2023-02-12T04:41:29;99754.66;;;5.13;76.71
42519;BME280;28147;47.520;18.920;2023-02-12T04:43:55;99753.81;;;5.29;76.73
42519;BME280;28147;47.520;18.920;2023-02-12T04:46:20;99761.09;;;5.27;76.00
42519;BME280;28147;47.520;18.920;2023-02-12T04:49:04;99768.53;;;5.23;76.28
42519;BME280;28147;47.520;18.920;2023-02-12T04:54:05;99758.28;;;5.04;76.71
42519;BME280;28147;47.520;18.920;2023-02-12T04:56:31;99776.22;;;4.92;77.88
42519;BME280;28147;47.520;18.920;2023-02-12T04:58:56;99778.91;;;5.00;77.54
42519;BME280;28147;47.520;18.920;2023-02-12T05:01:22;99781.53;;;5.08;77.45
42519;BME280;28147;47.520;18.920;2023-02-12T05:03:51;99767.66;;;5.15;77.58
42519;BME280;28147;47.520;18.920;2023-02-12T05:06:17;99776.09;;;5.02;78.31
42519;BME280;28147;47.520;18.920;2023-02-12T05:08:43;99774.13;;;5.04;77.98
42519;BME280;28147;47.520;18.920;2023-02-12T05:11:09;99769.00;;;5.10;77.94
42519;BME280;28147;47.520;18.920;2023-02-12T05:13:36;99786.00;;;5.16;77.72
42519;BME280;28147;47.520;18.920;2023-02-12T05:16:06;99785.50;;;5.12;78.12
42519;BME280;28147;47.520;18.920;2023-02-12T05:18:32;99789.13;;;5.11;77.85
42519;BME280;28147;47.520;18.920;2023-02-12T05:21:01;99790.78;;;5.12;77.71
42519;BME280;28147;47.520;18.920;2023-02-12T05:23:29;99809.41;;;5.11;78.34
42519;BME280;28147;47.520;18.920;2023-02-12T05:25:57;99804.47;;;5.16;77.40
42519;BME280;28147;47.520;18.920;2023-02-12T05:28:23;99818.81;;;5.22;77.06
42519;BME280;28147;47.520;18.920;2023-02-12T05:30:49;99814.38;;;5.22;76.82
42519;BME280;28147;47.520;18.920;2023-02-12T05:33:14;99822.97;;;5.16;77.11
42519;BME280;28147;47.520;18.920;2023-02-12T05:35:40;99817.19;;;5.29;76.85
42519;BME280;28147;47.520;18.920;2023-02-12T05:38:05;99833.03;;;5.21;77.14
42519;BME280;28147;47.520;18.920;2023-02-12T05:40:31;99831.06;;;5.23;77.15
42519;BME280;28147;47.520;18.920;2023-02-12T05:42:56;99837.97;;;5.24;76.79
42519;BME280;28147;47.520;18.920;2023-02-12T05:45:21;99820.97;;;5.10;77.23
42519;BME280;28147;47.520;18.920;2023-02-12T05:47:52;99838.13;;;5.22;76.88
42519;BME280;28147;47.520;18.920;2023-02-12T05:50:18;99838.13;;;5.14;78.15
42519;BME280;28147;47.520;18.920;2023-02-12T05:52:43;99842.75;;;5.20;77.46
42519;BME280;28147;47.520;18.920;2023-02-12T05:55:09;99833.34;;;5.26;77.23
42519;BME280;28147;47.520;18.920;2023-02-12T05:57:34;99844.72;;;5.10;78.50
42519;BME280;28147;47.520;18.920;2023-02-12T05:59:59;99854.81;;;5.31;77.37
42519;BME280;28147;47.520;18.920;2023-02-12T06:02:25;99854.47;;;5.26;77.81
42519;BME280;28147;47.520;18.920;2023-02-12T06:04:50;99863.56;;;5.23;77.30
42519;BME280;28147;47.520;18.920;2023-02-12T06:07:15;99876.06;;;5.21;77.43
42519;BME280;28147;47.520;18.920;2023-02-12T06:09:41;99868.63;;;5.08;77.80
42519;BME280;28147;47.520;18.920;2023-02-12T06:12:06;99891.09;;;5.21;77.52
42519;BME280;28147;47.520;18.920;2023-02-12T06:14:32;99886.94;;;5.18;77.33
42519;BME280;28147;47.520;18.920;2023-02-12T06:16:57;99882.19;;;5.30;76.92
42519;BME280;28147;47.520;18.920;2023-02-12T06:19:23;99894.56;;;5.29;76.90
42519;BME280;28147;47.520;18.920;2023-02-12T06:21:48;99892.78;;;5.46;76.37
42519;BME280;28147;47.520;18.920;2023-02-12T06:24:15;99902.03;;;5.42;76.84
42519;BME280;28147;47.520;18.920;2023-02-12T06:26:41;99895.75;;;5.27;77.08
42519;BME280;28147;47.520;18.920;2023-02-12T06:29:07;99891.13;;;5.45;76.75
42519;BME280;28147;47.520;18.920;2023-02-12T06:31:34;99901.38;;;5.48;76.73
42519;BME280;28147;47.520;18.920;2023-02-12T06:34:05;99911.28;;;5.38;77.11
42519;BME280;28147;47.520;18.920;2023-02-12T06:36:31;99910.28;;;5.55;76.34
42519;BME280;28147;47.520;18.920;2023-02-12T06:38:57;99899.22;;;5.60;75.62
42519;BME280;28147;47.520;18.920;2023-02-12T06:41:24;99885.03;;;5.53;76.01
42519;BME280;28147;47.520;18.920;2023-02-12T06:43:49;99889.16;;;5.55;75.78
42519;BME280;28147;47.520;18.920;2023-02-12T06:46:15;99890.81;;;5.73;74.99
42519;BME280;28147;47.520;18.920;2023-02-12T06:48:41;99911.47;;;5.85;74.20
42519;BME280;28147;47.520;18.920;2023-02-12T06:51:11;99901.72;;;5.86;73.91
42519;BME280;28147;47.520;18.920;2023-02-12T06:53:38;99921.38;;;5.83;74.43
42519;BME280;28147;47.520;18.920;2023-02-12T06:56:05;99922.03;;;5.85;74.09
42519;BME280;28147;47.520;18.920;2023-02-12T06:58:31;99927.50;;;5.92;73.86
42519;BME280;28147;47.520;18.920;2023-02-12T07:01:07;99925.69;;;6.01;73.64
42519;BME280;28147;47.520;18.920;2023-02-12T07:03:32;99925.53;;;6.02;73.21
42519;BME280;28147;47.520;18.920;2023-02-12T07:05:58;99927.81;;;6.14;72.30
42519;BME280;28147;47.520;18.920;2023-02-12T07:08:23;99941.84;;;6.30;71.73
42519;BME280;28147;47.520;18.920;2023-02-12T07:10:49;99946.63;;;6.35;71.56
42519;BME280;28147;47.520;18.920;2023-02-12T07:13:14;99945.63;;;6.36;71.58
42519;BME280;28147;47.520;18.920;2023-02-12T07:15:39;99945.31;;;6.31;71.88
42519;BME280;28147;47.520;18.920;2023-02-12T07:18:05;99953.72;;;6.51;70.80
42519;BME280;28147;47.520;18.920;2023-02-12T07:20:30;99950.25;;;6.42;70.96
42519;BME280;28147;47.520;18.920;2023-02-12T07:22:56;99956.34;;;6.51;71.05
42519;BME280;28147;47.520;18.920;2023-02-12T07:25:21;99967.91;;;6.58;70.31
42519;BME280;28147;47.520;18.920;2023-02-12T07:27:46;99969.34;;;6.77;69.78
42519;BME280;28147;47.520;18.920;2023-02-12T07:30:12;99985.88;;;6.87;69.57
42519;BME280;28147;47.520;18.920;2023-02-12T07:32:38;99989.81;;;6.99;68.88
42519;BME280;28147;47.520;18.920;2023-02-12T07:35:03;99988.41;;;7.20;67.93
42519;BME280;28147;47.520;18.920;2023-02-12T07:37:29;99982.44;;;7.18;67.61
42519;BME280;28147;47.520;18.920;2023-02-12T07:39:54;99988.28;;;7.44;66.57
42519;BME280;28147;47.520;18.920;2023-02-12T07:42:19;99991.03;;;7.59;65.60
42519;BME280;28147;47.520;18.920;2023-02-12T07:44:45;100010.66;;;7.96;64.68
42519;BME280;28147;47.520;18.920;2023-02-12T07:47:10;100020.69;;;8.09;64.41
42519;BME280;28147;47.520;18.920;2023-02-12T07:49:36;100024.28;;;8.16;63.80
42519;BME280;28147;47.520;18.920;2023-02-12T07:52:01;100036.41;;;8.56;62.70
42519;BME280;28147;47.520;18.920;2023-02-12T07:54:26;100024.16;;;8.70;61.47
42519;BME280;28147;47.520;18.920;2023-02-12T07:56:52;100038.63;;;8.82;60.85
42519;BME280;28147;47.520;18.920;2023-02-12T07:59:18;100030.31;;;9.15;59.72
42519;BME280;28147;47.520;18.920;2023-02-12T08:01:47;100032.03;;;9.52;58.50
42519;BME280;28147;47.520;18.920;2023-02-12T08:04:16;100029.03;;;9.77;58.31
42519;BME280;28147;47.520;18.920;2023-02-12T08:06:44;100037.28;;;10.24;56.96
42519;BME280;28147;47.520;18.920;2023-02-12T08:09:13;100040.28;;;10.36;55.84
42519;BME280;28147;47.520;18.920;2023-02-12T08:11:40;100046.94;;;10.26;55.18
42519;BME280;28147;47.520;18.920;2023-02-12T08:14:07;100046.13;;;11.03;54.62
42519;BME280;28147;47.520;18.920;2023-02-12T08:16:37;100055.25;;;11.22;53.09
42519;BME280;28147;47.520;18.920;2023-02-12T08:19:03;100053.50;;;11.42;53.11
42519;BME280;28147;47.520;18.920;2023-02-12T08:21:29;100052.13;;;11.53;52.11
42519;BME280;28147;47.520;18.920;2023-02-12T08:23:56;100056.28;;;11.68;51.52
42519;BME280;28147;47.520;18.920;2023-02-12T08:26:27;100063.44;;;12.09;51.57
42519;BME280;28147;47.520;18.920;2023-02-12T08:28:56;100059.88;;;11.89;51.15
42519;BME280;28147;47.520;18.920;2023-02-12T08:31:33;100066.28;;;12.08;50.32
42519;BME280;28147;47.520;18.920;2023-02-12T08:34:00;100067.03;;;11.88;50.46
42519;BME280;28147;47.520;18.920;2023-02-12T08:36:36;100066.34;;;12.28;49.70
42519;BME280;28147;47.520;18.920;2023-02-12T08:39:03;100054.00;;;12.86;47.82
42519;BME280;28147;47.520;18.920;2023-02-12T08:41:29;100059.34;;;12.80;47.76
42519;BME280;28147;47.520;18.920;2023-02-12T08:43:58;100060.59;;;12.71;47.15
42519;BME280;28147;47.520;18.920;2023-02-12T08:46:29;100060.75;;;13.09;47.61
42519;BME280;28147;47.520;18.920;2023-02-12T08:48:57;100063.25;;;12.97;46.63
42519;BME280;28147;47.520;18.920;2023-02-12T08:51:27;100067.97;;;13.02;47.00
42519;BME280;28147;47.520;18.920;2023-02-12T08:53:54;100077.44;;;12.45;47.47
42519;BME280;28147;47.520;18.920;2023-02-12T08:56:20;100069.63;;;12.89;46.61
42519;BME280;28147;47.520;18.920;2023-02-12T08:58:46;100084.63;;;12.90;47.10
42519;BME280;28147;47.520;18.920;2023-02-12T09:01:15;100090.19;;;12.76;46.50
42519;BME280;28147;47.520;18.920;2023-02-12T09:03:41;100086.44;;;13.17;46.57
42519;BME280;28147;47.520;18.920;2023-02-12T09:06:08;100094.00;;;13.53;45.39
42519;BME280;28147;47.520;18.920;2023-02-12T09:08:35;100093.44;;;13.18;44.97
42519;BME280;28147;47.520;18.920;2023-02-12T09:11:06;100102.16;;;13.71;44.77
42519;BME280;28147;47.520;18.920;2023-02-12T09:13:32;100103.91;;;13.39;44.28
42519;BME280;28147;47.520;18.920;2023-02-12T09:16:00;100109.91;;;13.14;45.53
42519;BME280;28147;47.520;18.920;2023-02-12T09:18:26;100111.13;;;13.12;44.85
42519;BME280;28147;47.520;18.920;2023-02-12T09:20:52;100124.00;;;13.68;45.50
42519;BME280;28147;47.520;18.920;2023-02-12T09:23:17;100120.06;;;14.22;44.24
42519;BME280;28147;47.520;18.920;2023-02-12T09:25:44;100124.78;;;14.20;43.36
42519;BME280;28147;47.520;18.920;2023-02-12T09:28:11;100124.44;;;14.48;41.72
42519;BME280;28147;47.520;18.920;2023-02-12T09:30:37;100130.13;;;14.90;42.16
42519;BME280;28147;47.520;18.920;2023-02-12T09:33:03;100132.47;;;14.80;42.17
42519;BME280;28147;47.520;18.920;2023-02-12T09:35:29;100132.47;;;14.80;42.13
42519;BME280;28147;47.520;18.920;2023-02-12T09:37:55;100127.28;;;14.85;42.18
42519;BME280;28147;47.520;18.920;2023-02-12T09:40:30;100130.81;;;15.29;41.52
42519;BME280;28147;47.520;18.920;2023-02-12T09:43:17;100133.13;;;15.44;40.76
42519;BME280;28147;47.520;18.920;2023-02-12T09:46:10;100125.59;;;15.34;40.55
42519;BME280;28147;47.520;18.920;2023-02-12T09:48:54;100128.44;;;15.39;40.79
42519;BME280;28147;47.520;18.920;2023-02-12T09:51:25;100126.72;;;15.63;39.63
42519;BME280;28147;47.520;18.920;2023-02-12T09:54:04;100136.06;;;15.79;40.13
42519;BME280;28147;47.520;18.920;2023-02-12T09:56:30;100135.75;;;15.87;39.58
42519;BME280;28147;47.520;18.920;2023-02-12T09:59:00;100131.88;;;15.83;39.11
42519;BME280;28147;47.520;18.920;2023-02-12T10:01:26;100136.63;;;15.69;39.77
42519;BME280;28147;47.520;18.920;2023-02-12T10:03:52;100140.63;;;15.78;39.64
42519;BME280;28147;47.520;18.920;2023-02-12T10:06:25;100143.25;;;15.42;39.87
42519;BME280;28147;47.520;18.920;2023-02-12T10:27:56;100175.28;;;12.59;45.80
42519;BME280;28147;47.520;18.920;2023-02-12T10:30:39;100174.19;;;12.33;46.61
42519;BME280;28147;47.520;18.920;2023-02-12T10:33:12;100171.47;;;12.27;47.24
42519;BME280;28147;47.520;18.920;2023-02-12T10:35:44;100183.56;;;11.75;48.31
42519;BME280;28147;47.520;18.920;2023-02-12T10:38:33;100168.59;;;11.80;48.31
42519;BME280;28147;47.520;18.920;2023-02-12T10:41:00;100171.13;;;11.54;49.36
42519;BME280;28147;47.520;18.920;2023-02-12T10:43:27;100167.03;;;11.58;49.64
42519;BME280;28147;47.520;18.920;2023-02-12T10:45:53;100169.09;;;11.56;49.29
42519;BME280;28147;47.520;18.920;2023-02-12T10:48:21;100171.47;;;11.44;49.75
42519;BME280;28147;47.520;18.920;2023-02-12T10:53:30;100174.47;;;12.72;47.27
42519;BME280;28147;47.520;18.920;2023-02-12T10:56:23;100174.22;;;13.73;44.68
42519;BME280;28147;47.520;18.920;2023-02-12T11:03:41;100176.38;;;15.36;41.46
42519;BME280;28147;47.520;18.920;2023-02-12T11:06:13;100173.84;;;15.59;40.48
42519;BME280;28147;47.520;18.920;2023-02-12T11:08:39;100168.72;;;15.14;41.32
42519;BME280;28147;47.520;18.920;2023-02-12T11:13:41;100177.63;;;15.33;40.83
42519;BME280;28147;47.520;18.920;2023-02-12T11:16:09;100168.06;;;14.62;40.86
42519;BME280;28147;47.520;18.920;2023-02-12T11:18:35;100170.88;;;14.35;43.35
42519;BME280;28147;47.520;18.920;2023-02-12T11:21:07;100169.09;;;13.65;44.10
42519;BME280;28147;47.520;18.920;2023-02-12T11:23:40;100176.97;;;13.00;45.13
42519;BME280;28147;47.520;18.920;2023-02-12T11:26:22;100176.50;;;12.63;46.20
42519;BME280;28147;47.520;18.920;2023-02-12T11:28:58;100176.94;;;12.66;45.80
42519;BME280;28147;47.520;18.920;2023-02-12T11:31:25;100175.66;;;12.49;46.19
42519;BME280;28147;47.520;18.920;2023-02-12T11:36:42;100172.75;;;12.37;45.96
42519;BME280;28147;47.520;18.920;2023-02-12T11:39:29;100165.94;;;12.28;45.53
42519;BME280;28147;47.520;18.920;2023-02-12T11:42:33;100171.22;;;12.15;45.86
42519;BME280;28147;47.520;18.920;2023-02-12T11:44:54;100175.97;;;12.20;46.09
42519;BME280;28147;47.520;18.920;2023-02-12T11:47:24;100164.22;;;12.07;46.77
42519;BME280;28147;47.520;18.920;2023-02-12T11:52:21;100172.63;;;11.69;47.08
42519;BME280;28147;47.520;18.920;2023-02-12T11:54:50;100178.25;;;11.81;47.29
42519;BME280;28147;47.520;18.920;2023-02-12T11:57:47;100179.22;;;11.74;46.93
42519;BME280;28147;47.520;18.920;2023-02-12T12:00:17;100173.19;;;11.86;46.98
42519;BME280;28147;47.520;18.920;2023-02-12T12:05:30;100171.97;;;11.96;47.15
42519;BME280;28147;47.520;18.920;2023-02-12T12:07:59;100171.59;;;11.99;46.69
42519;BME280;28147;47.520;18.920;2023-02-12T12:10:37;100166.69;;;11.74;46.77
42519;BME280;28147;47.520;18.920;2023-02-12T12:13:17;100161.47;;;11.87;46.92
42519;BME280;28147;47.520;18.920;2023-02-12T12:15:50;100152.13;;;12.11;46.93
42519;BME280;28147;47.520;18.920;2023-02-12T12:18:42;100158.03;;;12.00;46.20
42519;BME280;28147;47.520;18.920;2023-02-12T12:26:28;100154.97;;;13.24;43.32
42519;BME280;28147;47.520;18.920;2023-02-12T12:31:42;100152.56;;;11.39;45.51
42519;BME280;28147;47.520;18.920;2023-02-12T12:34:12;100149.28;;;11.43;45.92
42519;BME280;28147;47.520;18.920;2023-02-12T12:39:37;100139.75;;;11.28;47.74
42519;BME280;28147;47.520;18.920;2023-02-12T12:55:53;100152.88;;;11.57;47.24
42519;BME280;28147;47.520;18.920;2023-02-12T13:13:35;100152.75;;;11.37;47.37
42519;BME280;28147;47.520;18.920;2023-02-12T13:16:15;100152.09;;;11.63;47.12
42519;BME280;28147;47.520;18.920;2023-02-12T13:26:54;100146.78;;;11.63;46.75
42519;BME280;28147;47.520;18.920;2023-02-12T13:29:43;100150.72;;;11.81;46.62
42519;BME280;28147;47.520;18.920;2023-02-12T13:32:39;100156.34;;;11.86;46.70
42519;BME280;28147;47.520;18.920;2023-02-12T13:35:19;100154.44;;;11.80;46.67
42519;BME280;28147;47.520;18.920;2023-02-12T13:37:48;100154.38;;;11.73;46.26
42519;BME280;28147;47.520;18.920;2023-02-12T13:40:24;100157.00;;;11.60;46.45
42519;BME280;28147;47.520;18.920;2023-02-12T13:59:56;100175.81;;;10.95;48.20
42519;BME280;28147;47.520;18.920;2023-02-12T14:02:25;100175.78;;;11.17;48.21
42519;BME280;28147;47.520;18.920;2023-02-12T14:04:58;100173.97;;;11.24;47.92
42519;BME280;28147;47.520;18.920;2023-02-12T14:07:43;100166.00;;;11.24;48.42
42519;BME280;28147;47.520;18.920;2023-02-12T14:10:39;100163.91;;;11.19;48.33
42519;BME280;28147;47.520;18.920;2023-02-12T14:15:35;100157.59;;;11.27;47.90
42519;BME280;28147;47.520;18.920;2023-02-12T14:20:34;100166.25;;;11.29;48.24
42519;BME280;28147;47.520;18.920;2023-02-12T14:23:23;100172.63;;;11.07;48.69
42519;BME280;28147;47.520;18.920;2023-02-12T14:25:58;100178.78;;;11.07;48.05
42519;BME280;28147;47.520;18.920;2023-02-12T14:28:53;100177.66;;;10.95;48.77
42519;BME280;28147;47.520;18.920;2023-02-12T14:33:49;100178.78;;;9.77;53.32
42519;BME280;28147;47.520;18.920;2023-02-12T14:36:42;100182.00;;;9.72;53.65
42519;BME280;28147;47.520;18.920;2023-02-12T14:44:51;100200.91;;;9.78;53.06
42519;BME280;28147;47.520;18.920;2023-02-12T14:50:16;100205.66;;;9.97;52.38
42519;BME280;28147;47.520;18.920;2023-02-12T14:52:47;100203.78;;;9.38;53.95
42519;BME280;28147;47.520;18.920;2023-02-12T14:55:20;100208.56;;;9.28;54.30
42519;BME280;28147;47.520;18.920;2023-02-12T14:57:48;100203.19;;;9.51;53.66
42519;BME280;28147;47.520;18.920;2023-02-12T15:05:20;100214.81;;;9.12;54.74
42519;BME280;28147;47.520;18.920;2023-02-12T15:10:39;100213.34;;;9.47;54.67
42519;BME280;28147;47.520;18.920;2023-02-12T15:15:56;100200.44;;;9.59;54.02
42519;BME280;28147;47.520;18.920;2023-02-12T15:18:28;100204.91;;;9.73;54.02
42519;BME280;28147;47.520;18.920;2023-02-12T15:21:27;100211.50;;;9.33;54.87
42519;BME280;28147;47.520;18.920;2023-02-12T15:24:01;100212.28;;;9.19;54.96
42519;BME280;28147;47.520;18.920;2023-02-12T15:26:28;100216.97;;;9.17;55.30
42519;BME280;28147;47.520;18.920;2023-02-12T15:28:54;100206.25;;;8.87;55.83
42519;BME280;28147;47.520;18.920;2023-02-12T15:31:28;100210.13;;;9.37;54.61
42519;BME280;28147;47.520;18.920;2023-02-12T15:33:56;100210.41;;;9.57;54.15
42519;BME280;28147;47.520;18.920;2023-02-12T15:36:24;100209.88;;;9.77;53.53
42519;BME280;28147;47.520;18.920;2023-02-12T15:38:53;100216.19;;;9.75;53.55
42519;BME280;28147;47.520;18.920;2023-02-12T15:41:26;100209.03;;;9.61;53.47
42519;BME280;28147;47.520;18.920;2023-02-12T15:43:52;100219.22;;;9.72;53.60
42519;BME280;28147;47.520;18.920;2023-02-12T15:46:17;100215.66;;;9.80;53.00
42519;BME280;28147;47.520;18.920;2023-02-12T15:48:44;100229.13;;;9.79;53.39
42519;BME280;28147;47.520;18.920;2023-02-12T15:53:37;100227.03;;;9.59;53.62
42519;BME280;28147;47.520;18.920;2023-02-12T15:56:03;100238.66;;;9.43;54.08
42519;BME280;28147;47.520;18.920;2023-02-12T15:58:46;100231.19;;;9.39;53.94
42519;BME280;28147;47.520;18.920;2023-02-12T16:01:16;100245.13;;;9.41;53.94
42519;BME280;28147;47.520;18.920;2023-02-12T16:03:42;100240.88;;;9.17;54.41
42519;BME280;28147;47.520;18.920;2023-02-12T16:06:11;100239.16;;;9.01;54.78
42519;BME280;28147;47.520;18.920;2023-02-12T16:08:43;100248.31;;;8.98;55.01
42519;BME280;28147;47.520;18.920;2023-02-12T16:11:11;100255.03;;;8.86;55.06
42519;BME280;28147;47.520;18.920;2023-02-12T16:13:49;100257.31;;;8.66;54.85
42519;BME280;28147;47.520;18.920;2023-02-12T16:16:21;100265.94;;;8.37;55.99
42519;BME280;28147;47.520;18.920;2023-02-12T16:19:02;100263.88;;;8.47;55.61
42519;BME280;28147;47.520;18.920;2023-02-12T16:21:28;100269.72;;;8.43;55.79
42519;BME280;28147;47.520;18.920;2023-02-12T16:23:53;100273.06;;;8.28;56.15
42519;BME280;28147;47.520;18.920;2023-02-12T16:26:22;100268.13;;;8.88;63.47
42519;BME280;28147;47.520;18.920;2023-02-12T16:28:51;100271.97;;;8.85;54.96
42519;BME280;28147;47.520;18.920;2023-02-12T16:31:19;100273.78;;;9.31;55.07
42519;BME280;28147;47.520;18.920;2023-02-12T16:33:51;100270.53;;;8.74;55.22
42519;BME280;28147;47.520;18.920;2023-02-12T16:38:49;100277.41;;;8.21;56.21